Terminal Aerodrome Forecast
Issued by NWS Atlanta, GA

Home | Current Version | Previous Version | Text Only | Print | Product List | Glossary On
Versions: 1 2 3 4 5 6 7 8 9 10 11 12 13 14 15 16 17 18 19 20 21 22 23 24 25 26 27 28 29 30 31 32 33 34 35 36 37 38 39 40 41 42 43 44 45 46 47
000
FTUS42 KFFC 230939 AAC
TAFATL
TAF AMD
KATL 230939Z 2310/2412 22003KT 6SM -SHRA VCTS BKN008CB
      TEMPO 2310/2312 4SM -RA BKN004
     FM231200 22005KT 4SM -SHRA OVC008
     FM231500 22007KT 5SM -SHRA OVC008
     FM231600 27006KT P6SM -SHRA OVC012
     FM232000 24006KT P6SM VCSH BKN030
     FM240000 20005KT P6SM VCSH SCT030 BKN150=

USA.gov is the U.S. government's official web portal to all federal, state and local government web resources and services.